Disclaimer

Please do not use the information listed here in-flight or in-navigation, as they are not provided to us by the airports but are provided by volunteers, so they might be outdated.

Search


Regions


Airport information page

No radio frequency information is available.

Airport informations:
Latitude: 30° 34' 42.70" N
Longitude: 103° 56' 49.51" E
Elevation: 1625 feet - 495 meters
Operating hours: Remarks
Operating agency: Civil government, landing fees and diplomatic clearance may be required
Timezone: UTC+8
Fuel: N/A

Runway information:
02/20 - 11811 x 197 feet< - >3600 x 60 meters

Recent METARs:
ZUUU 182300Z 00000MPS CAVOK 06/05 Q1023 NOSIG
ZUUU 182300Z 00000MPS CAVOK 06/05 Q1023 NOSIG
ZUUU 190000Z VRB01MPS CAVOK 07/05 Q1023 NOSIG

Airport on the map: